Aeroporto :
LOGIN :

Iscrizione | Disclaimer

   EN    FR    IT 

 










Sommario :    VFR   VFR Marginale   IFR   IFR Intensivo   IFR Molto Intensivo
Visibilità : 
Base nubi : 
>= 8 km
>= 3000ft
5 / 8 km
1000 / 3000 ft
1500m / 5 km
500 / 1000 ft
800 / 1500m
200 / 500 ft
< 800m
< 200 ft
Simboli :   Temporali  Nebbia  Neve Forte  Precipitazioni Forti  Vento > 20 kt
SIGMETs :   Varie  Temporali  Ghiacco  Turbolenza  Onda orograficha  Ceneri Vulcaniche






- Altitudine del aeroporto : 100 ft
- Codice IATA : DCI


LIED - Decimomannu Air Base

ULTIMO METAR :
  • 041055Z 15010KT 9999 FEW040 SCT050 15/10 Q1001 RMK BKN VIS MIN 9999 WIND THR35 /////KT WIND THR17 16007KT BLU

METARs OBSOLETI :
  • 040955Z 15007KT 9999 FEW035 SCT040 14/10 Q1002 RMK BKN VIS MIN 9999 WIND THR35 /////KT WIND THR17 15008KT BLU
  • 040855Z 11006KT 9999 FEW035 SCT040 11/08 Q1002 RMK BKN VIS MIN 9999 WIND THR35 /////KT WIND THR17 11007KT BLU

TAF TAF LIED
Valido dal 04 a 12 ore il 04 a 21 ore UTC


041100Z 0412/0421 16012KT 9999 FEW020 BKN040
TEMPO 0414/0421 5000 RA SHRA FEW015CB



MetMap, La meteo Aeronautica in un colpo d'occhio ! - Copyright ORBIFLY Dicembre 2007 - Disclaimer

ORBIFLY MET'MAP TEAM :

Programmazione e sviluppo : Alexandra Zaïnal
Concezione : Baudouin d'Aumeries
Aiuto per la programmazione : Marc-Olivier Méhu
Supporto tecnico e logistico : Manuel Goepfert
Aiuto per la traduzione : Arnaldo La Scala

Contatto : metmap@orbifly.com




FONTI E CREDITI :

   NOAA